Time;durP1;ratioP1;P1;durP2;ratioP2;P2;SDS_P1;SDS_P2;PMS_P1;PMS_P2;Temp;Humidity;BMP_temperature;BMP_pressure;BME280_temperature;BME280_humidity;BME280_pressure;Samples;Min_cycle;Max_cycle;Signal;HPM_P1;HPM_P2
2023/01/06 00:04:26;;;;;;;72.65;38.55;;;;;;;;;;10088289;28;20136;-61
2023/01/06 00:09:20;;;;;;;85.10;37.58;;;;;;;;;;10101845;28;20049;-61
2023/01/06 00:14:14;;;;;;;94.85;44.78;;;;;;;;;;10097017;28;20055;-61
2023/01/06 00:19:11;;;;;;;79.50;38.38;;;;;;;;;;10097446;28;20048;-61
2023/01/06 00:24:06;;;;;;;122.72;38.92;;;;;;;;;;10101873;28;20081;-61
2023/01/06 00:29:00;;;;;;;144.05;43.95;;;;;;;;;;10080409;28;20080;-61
2023/01/06 00:34:14;;;;;;;116.55;40.67;;;;;;;;;;10098719;28;20140;-61
2023/01/06 00:39:08;;;;;;;113.70;40.80;;;;;;;;;;10096540;28;20489;-61
2023/01/06 00:44:03;;;;;;;124.55;41.65;;;;;;;;;;10106598;28;20139;-61
2023/01/06 00:48:59;;;;;;;175.40;40.70;;;;;;;;;;10091164;28;20084;-61
2023/01/06 00:54:00;;;;;;;119.75;37.85;;;;;;;;;;10087831;28;20050;-61
2023/01/06 00:58:54;;;;;;;126.28;37.60;;;;;;;;;;10111766;28;20076;-61
2023/01/06 01:03:49;;;;;;;94.43;34.83;;;;;;;;;;10120837;28;20094;-61
2023/01/06 01:08:42;;;;;;;156.02;39.17;;;;;;;;;;10110350;28;20072;-61
2023/01/06 01:13:37;;;;;;;103.55;37.08;;;;;;;;;;10119950;28;20071;-61
2023/01/06 01:18:31;;;;;;;103.30;33.55;;;;;;;;;;10120338;28;20496;-61
2023/01/06 01:23:24;;;;;;;127.88;34.63;;;;;;;;;;10113515;28;20080;-61
2023/01/06 01:28:18;;;;;;;64.13;28.92;;;;;;;;;;10117080;28;20049;-61
2023/01/06 01:33:12;;;;;;;68.93;32.28;;;;;;;;;;10115739;28;20048;-61
2023/01/06 01:38:05;;;;;;;111.03;31.95;;;;;;;;;;10096468;28;20083;-61
2023/01/06 01:42:58;;;;;;;227.70;39.50;;;;;;;;;;10098278;28;20484;-61
2023/01/06 01:48:02;;;;;;;198.65;37.47;;;;;;;;;;10111474;28;20049;-61
2023/01/06 01:53:00;;;;;;;119.25;35.38;;;;;;;;;;10094080;28;20053;-61
2023/01/06 01:57:58;;;;;;;127.57;38.20;;;;;;;;;;10079609;28;20045;-61
2023/01/06 02:02:51;;;;;;;123.07;35.17;;;;;;;;;;10086305;28;20128;-61
2023/01/06 02:07:49;;;;;;;95.28;34.95;;;;;;;;;;10111049;28;20048;-61
2023/01/06 02:12:42;;;;;;;83.88;33.38;;;;;;;;;;10110042;28;20426;-61
2023/01/06 02:17:47;;;;;;;61.00;29.70;;;;;;;;;;10094751;28;20075;-61
2023/01/06 02:22:58;;;;;;;70.75;31.35;;;;;;;;;;10103796;28;20057;-62
2023/01/06 02:28:24;;;;;;;71.40;30.73;;;;;;;;;;10088128;28;20504;-62
2023/01/06 02:33:33;;;;;;;121.90;30.65;;;;;;;;;;10111901;28;20052;-62
2023/01/06 02:38:35;;;;;;;430.03;61.30;;;;;;;;;;10109261;28;20079;-62
2023/01/06 02:44:00;;;;;;;69.10;29.98;;;;;;;;;;10095753;28;20132;-62
2023/01/06 02:49:27;;;;;;;108.10;29.85;;;;;;;;;;10100013;28;20397;-62
2023/01/06 02:54:38;;;;;;;106.22;31.70;;;;;;;;;;10102811;28;20061;-62
2023/01/06 03:00:04;;;;;;;148.10;33.67;;;;;;;;;;10104769;28;20065;-62
2023/01/06 03:04:59;;;;;;;94.45;29.35;;;;;;;;;;10087878;28;20468;-61
2023/01/06 03:09:53;;;;;;;89.18;29.48;;;;;;;;;;10089072;28;20068;-62
2023/01/06 03:14:50;;;;;;;299.20;45.03;;;;;;;;;;10079806;28;20128;-62
2023/01/06 03:19:44;;;;;;;190.32;38.38;;;;;;;;;;10105177;28;20069;-62
2023/01/06 03:24:40;;;;;;;114.93;28.33;;;;;;;;;;10092299;28;20567;-62
2023/01/06 03:29:34;;;;;;;72.72;26.02;;;;;;;;;;10089377;28;20055;-61
2023/01/06 03:35:03;;;;;;;66.30;25.23;;;;;;;;;;10092669;28;20493;-62
2023/01/06 03:40:39;;;;;;;327.60;48.37;;;;;;;;;;10093120;28;20409;-61
2023/01/06 03:45:43;;;;;;;177.15;32.38;;;;;;;;;;9966618;28;20046;-62
2023/01/06 03:51:05;;;;;;;194.70;36.75;;;;;;;;;;10059238;28;20136;-62
2023/01/06 03:56:22;;;;;;;138.40;29.45;;;;;;;;;;10067599;28;20041;-62
2023/01/06 04:01:16;;;;;;;163.57;28.52;;;;;;;;;;10096993;28;20057;-62
2023/01/06 04:06:10;;;;;;;174.65;28.15;;;;;;;;;;10087902;28;20044;-62
2023/01/06 04:11:04;;;;;;;212.85;35.25;;;;;;;;;;10089161;28;20052;-62
2023/01/06 04:15:58;;;;;;;122.65;29.70;;;;;;;;;;10105551;28;20048;-62
2023/01/06 04:20:52;;;;;;;133.98;30.77;;;;;;;;;;10120518;28;20516;-62
2023/01/06 04:25:51;;;;;;;152.88;30.63;;;;;;;;;;10085189;28;20041;-62
2023/01/06 04:30:56;;;;;;;146.75;32.80;;;;;;;;;;10077753;28;20059;-62
2023/01/06 04:35:50;;;;;;;135.63;29.05;;;;;;;;;;10086835;28;20080;-62
2023/01/06 04:40:46;;;;;;;126.13;26.85;;;;;;;;;;10118039;28;20055;-62
2023/01/06 04:45:40;;;;;;;120.68;28.30;;;;;;;;;;10125709;28;20080;-62
2023/01/06 04:50:33;;;;;;;62.20;21.15;;;;;;;;;;10106353;28;20066;-62
2023/01/06 04:55:28;;;;;;;108.25;29.67;;;;;;;;;;10108082;28;21521;-62
2023/01/06 05:00:22;;;;;;;70.28;21.95;;;;;;;;;;10108271;28;20057;-62
2023/01/06 05:05:16;;;;;;;132.80;26.92;;;;;;;;;;10111258;28;20041;-61
2023/01/06 05:10:10;;;;;;;112.22;25.63;;;;;;;;;;10110725;28;20057;-62
2023/01/06 05:15:05;;;;;;;59.70;24.42;;;;;;;;;;10089149;28;20080;-62
2023/01/06 05:19:59;;;;;;;30.40;22.10;;;;;;;;;;10116574;28;20524;-62
2023/01/06 05:24:52;;;;;;;33.53;23.05;;;;;;;;;;10103812;28;20037;-62
2023/01/06 05:29:47;;;;;;;25.80;20.23;;;;;;;;;;10109833;28;20049;-62
2023/01/06 05:34:40;;;;;;;24.45;18.60;;;;;;;;;;10111776;28;20589;-62
2023/01/06 05:39:34;;;;;;;25.90;19.77;;;;;;;;;;10118807;28;20049;-62
2023/01/06 05:44:28;;;;;;;19.73;17.30;;;;;;;;;;10117916;28;20040;-62
2023/01/06 05:49:22;;;;;;;18.58;15.18;;;;;;;;;;10111659;28;20055;-62
2023/01/06 05:54:16;;;;;;;20.65;15.68;;;;;;;;;;10111744;28;20552;-62
2023/01/06 05:59:10;;;;;;;17.63;15.45;;;;;;;;;;10110849;28;20467;-62
2023/01/06 06:04:04;;;;;;;16.80;13.93;;;;;;;;;;10113136;28;20041;-62
2023/01/06 06:08:58;;;;;;;18.45;14.38;;;;;;;;;;10113620;28;20501;-62
2023/01/06 06:13:54;;;;;;;21.55;15.98;;;;;;;;;;10110071;28;20493;-62
2023/01/06 06:18:52;;;;;;;16.30;13.77;;;;;;;;;;10118614;28;20071;-62
2023/01/06 06:23:46;;;;;;;17.52;14.75;;;;;;;;;;10108113;28;20095;-62
2023/01/06 06:28:41;;;;;;;20.15;14.63;;;;;;;;;;10121631;28;20053;-62
2023/01/06 06:33:34;;;;;;;17.80;15.13;;;;;;;;;;10109602;28;20071;-62
2023/01/06 06:38:28;;;;;;;17.65;15.18;;;;;;;;;;10108458;28;20076;-62
2023/01/06 06:43:23;;;;;;;17.92;14.00;;;;;;;;;;10108658;28;20515;-62
2023/01/06 06:48:16;;;;;;;16.25;14.52;;;;;;;;;;10104044;28;20459;-62
2023/01/06 06:53:09;;;;;;;15.15;13.18;;;;;;;;;;10109178;28;20139;-62
2023/01/06 06:58:02;;;;;;;15.70;14.07;;;;;;;;;;10108340;28;20486;-62
2023/01/06 07:02:56;;;;;;;18.52;15.00;;;;;;;;;;10114538;28;20049;-62
2023/01/06 07:07:50;;;;;;;16.85;14.15;;;;;;;;;;10111987;28;20481;-62
2023/01/06 07:12:44;;;;;;;16.00;13.70;;;;;;;;;;10111261;28;20068;-62
2023/01/06 07:17:40;;;;;;;16.10;14.25;;;;;;;;;;10128239;28;20128;-61
2023/01/06 07:22:40;;;;;;;16.65;14.70;;;;;;;;;;10113121;28;20417;-68
2023/01/06 07:27:34;;;;;;;19.27;15.98;;;;;;;;;;10113287;28;20080;-62
2023/01/06 07:32:26;;;;;;;30.23;17.67;;;;;;;;;;10106413;28;20051;-63
2023/01/06 07:37:20;;;;;;;24.20;17.60;;;;;;;;;;10123874;28;20057;-62
2023/01/06 07:42:13;;;;;;;20.40;14.55;;;;;;;;;;10107491;28;20052;-69
2023/01/06 07:47:09;;;;;;;20.65;15.93;;;;;;;;;;10109521;28;20106;-64
2023/01/06 07:52:03;;;;;;;27.52;18.75;;;;;;;;;;10110940;28;20061;-63
2023/01/06 07:56:56;;;;;;;28.42;18.52;;;;;;;;;;10118147;28;20052;-63
2023/01/06 08:01:50;;;;;;;31.13;18.25;;;;;;;;;;10105847;28;20061;-63
2023/01/06 08:06:43;;;;;;;24.88;16.25;;;;;;;;;;10114009;28;20079;-63
2023/01/06 08:11:38;;;;;;;23.70;17.02;;;;;;;;;;10119198;28;20059;-63
2023/01/06 08:16:31;;;;;;;29.05;17.63;;;;;;;;;;10125589;28;20041;-63
2023/01/06 08:21:26;;;;;;;27.10;18.23;;;;;;;;;;10130367;28;20076;-62
2023/01/06 08:26:20;;;;;;;26.85;18.05;;;;;;;;;;10105486;28;20069;-62
2023/01/06 08:31:16;;;;;;;23.05;18.83;;;;;;;;;;10122727;28;20051;-62
2023/01/06 08:36:14;;;;;;;27.20;17.73;;;;;;;;;;10126666;28;20102;-62
2023/01/06 08:41:07;;;;;;;28.90;19.27;;;;;;;;;;10110596;28;20132;-62
2023/01/06 08:46:02;;;;;;;25.35;19.02;;;;;;;;;;10106104;28;20080;-62
2023/01/06 08:51:04;;;;;;;25.30;19.83;;;;;;;;;;10108565;28;20072;-62
2023/01/06 08:55:58;;;;;;;26.80;20.27;;;;;;;;;;10111363;28;20506;-63
2023/01/06 09:00:52;;;;;;;32.45;22.73;;;;;;;;;;10105169;28;20048;-71
2023/01/06 09:05:55;;;;;;;34.15;23.50;;;;;;;;;;10122086;28;20060;-63
2023/01/06 09:10:50;;;;;;;34.35;22.05;;;;;;;;;;10118382;28;20147;-63
2023/01/06 09:15:47;;;;;;;34.67;22.98;;;;;;;;;;10121621;28;20051;-63
2023/01/06 09:20:41;;;;;;;31.33;21.63;;;;;;;;;;10091459;28;20064;-65
2023/01/06 09:25:35;;;;;;;35.38;26.20;;;;;;;;;;10097354;28;20053;-64
2023/01/06 09:30:29;;;;;;;36.60;24.45;;;;;;;;;;10101286;28;20048;-64
2023/01/06 09:35:22;;;;;;;39.67;25.30;;;;;;;;;;10094686;28;20532;-63
2023/01/06 09:40:24;;;;;;;33.00;22.02;;;;;;;;;;10098339;28;20107;-63
2023/01/06 09:45:29;;;;;;;33.75;24.23;;;;;;;;;;10102481;28;20540;-64
2023/01/06 09:50:37;;;;;;;34.42;25.20;;;;;;;;;;10099097;28;20057;-63
2023/01/06 09:55:42;;;;;;;36.13;23.10;;;;;;;;;;10086396;28;20493;-64
2023/01/06 10:00:41;;;;;;;29.27;21.48;;;;;;;;;;10100967;28;20056;-64
2023/01/06 10:06:11;;;;;;;27.45;21.55;;;;;;;;;;10103013;28;20045;-64
2023/01/06 10:11:42;;;;;;;26.35;20.85;;;;;;;;;;10099959;28;20071;-64
2023/01/06 10:17:00;;;;;;;26.02;19.10;;;;;;;;;;10093369;28;20453;-60
2023/01/06 10:22:21;;;;;;;24.90;20.55;;;;;;;;;;10091331;28;20524;-60
2023/01/06 10:27:41;;;;;;;22.35;18.75;;;;;;;;;;10094824;28;20460;-60
2023/01/06 10:32:34;;;;;;;;;;;;;;;;;;10085440;28;20064;-60
2023/01/06 10:37:37;;;;;;;23.73;18.73;;;;;;;;;;10115475;28;19950;-60
2023/01/06 10:42:56;;;;;;;20.90;17.77;;;;;;;;;;10107850;28;20053;-60
2023/01/06 10:47:50;;;;;;;24.75;18.48;;;;;;;;;;10093636;28;20076;-60
2023/01/06 10:52:44;;;;;;;24.50;20.02;;;;;;;;;;10097754;28;20057;-60
2023/01/06 10:57:40;;;;;;;24.08;19.48;;;;;;;;;;10099840;28;20049;-63
2023/01/06 11:02:34;;;;;;;25.90;20.52;;;;;;;;;;10101397;28;20091;-63
2023/01/06 11:07:29;;;;;;;25.20;20.10;;;;;;;;;;10101953;28;20033;-62
2023/01/06 11:12:28;;;;;;;22.80;18.63;;;;;;;;;;10100828;28;20063;-62
2023/01/06 11:17:22;;;;;;;23.70;18.70;;;;;;;;;;10093427;28;20056;-62
2023/01/06 11:22:33;;;;;;;22.05;17.98;;;;;;;;;;10092602;28;20087;-63
2023/01/06 11:27:27;;;;;;;25.30;19.90;;;;;;;;;;10095838;28;20455;-65
2023/01/06 11:32:25;;;;;;;23.75;19.65;;;;;;;;;;10099978;28;20517;-63
2023/01/06 11:37:41;;;;;;;24.13;19.95;;;;;;;;;;10103347;28;20040;-63
2023/01/06 11:42:35;;;;;;;27.35;21.38;;;;;;;;;;10110060;28;20041;-64
2023/01/06 11:47:29;;;;;;;26.17;20.92;;;;;;;;;;10114106;28;20044;-63
2023/01/06 11:52:25;;;;;;;25.02;21.45;;;;;;;;;;10114374;28;20056;-64
2023/01/06 11:57:28;;;;;;;29.70;21.65;;;;;;;;;;10072066;28;20057;-65
2023/01/06 12:02:27;;;;;;;30.80;23.23;;;;;;;;;;10083064;28;20141;-63
2023/01/06 12:07:28;;;;;;;29.73;22.55;;;;;;;;;;10095058;28;20080;-63
2023/01/06 12:12:25;;;;;;;35.42;24.35;;;;;;;;;;10084404;28;20084;-63
2023/01/06 12:17:45;;;;;;;30.85;24.83;;;;;;;;;;10086402;28;20417;-63
2023/01/06 12:22:41;;;;;;;;;;;;;;;;;;10063911;28;20041;-66
2023/01/06 12:28:06;;;;;;;30.70;23.20;;;;;;;;;;10075065;28;19929;-63
2023/01/06 12:33:42;;;;;;;32.22;25.23;;;;;;;;;;10071701;28;20564;-63
2023/01/06 12:39:15;;;;;;;31.77;23.80;;;;;;;;;;10087057;28;20071;-63
2023/01/06 12:44:58;;;;;;;34.42;23.40;;;;;;;;;;10107005;28;20055;-63
2023/01/06 12:50:13;;;;;;;34.03;24.33;;;;;;;;;;10043321;28;20048;-63
2023/01/06 12:55:12;;;;;;;32.17;24.58;;;;;;;;;;10097687;28;20061;-63
2023/01/06 13:00:14;;;;;;;42.17;30.13;;;;;;;;;;10102461;28;20054;-63
2023/01/06 13:05:36;;;;;;;53.13;36.25;;;;;;;;;;10104075;28;20620;-63
2023/01/06 13:10:30;;;;;;;51.10;34.35;;;;;;;;;;10096510;28;20049;-63
2023/01/06 13:15:32;;;;;;;52.72;35.55;;;;;;;;;;10085885;28;20053;-70
2023/01/06 13:20:28;;;;;;;56.10;37.20;;;;;;;;;;10096981;28;20057;-65
2023/01/06 13:25:58;;;;;;;67.13;42.92;;;;;;;;;;10092528;28;20061;-63
2023/01/06 13:31:22;;;;;;;58.72;38.10;;;;;;;;;;10091579;28;20044;-64
2023/01/06 13:36:34;;;;;;;66.35;41.15;;;;;;;;;;10089961;28;20045;-63
2023/01/06 13:41:48;;;;;;;63.38;41.40;;;;;;;;;;10087367;28;20065;-63
2023/01/06 13:46:41;;;;;;;63.90;42.38;;;;;;;;;;10077136;28;20049;-62
2023/01/06 13:51:37;;;;;;;68.85;42.63;;;;;;;;;;10080435;28;20387;-62
2023/01/06 13:56:35;;;;;;;61.22;43.25;;;;;;;;;;10081762;28;20303;-65
2023/01/06 14:01:28;;;;;;;68.55;44.83;;;;;;;;;;10081221;28;20049;-61
2023/01/06 14:06:21;;;;;;;66.32;39.70;;;;;;;;;;10078070;28;20067;-61
2023/01/06 14:11:31;;;;;;;62.58;38.83;;;;;;;;;;10081699;28;20048;-61
2023/01/06 14:16:57;;;;;;;60.35;39.55;;;;;;;;;;10079986;28;20054;-63
2023/01/06 14:21:52;;;;;;;58.28;37.25;;;;;;;;;;10055418;28;20497;-64
2023/01/06 14:26:51;;;;;;;101.38;40.83;;;;;;;;;;10108061;28;20055;-64
2023/01/06 14:31:45;;;;;;;63.42;40.42;;;;;;;;;;10108292;28;20400;-63
2023/01/06 14:36:38;;;;;;;60.72;39.00;;;;;;;;;;10108203;28;20053;-64
2023/01/06 14:41:33;;;;;;;59.42;36.65;;;;;;;;;;10113432;28;20052;-64
2023/01/06 14:46:32;;;;;;;58.20;40.80;;;;;;;;;;10133305;28;20048;-61
2023/01/06 14:51:26;;;;;;;54.03;38.60;;;;;;;;;;10116243;28;20045;-62
2023/01/06 14:56:21;;;;;;;56.28;35.97;;;;;;;;;;10106530;28;20071;-63
2023/01/06 15:01:30;;;;;;;55.15;34.83;;;;;;;;;;10117435;28;20075;-62
2023/01/06 15:06:25;;;;;;;52.90;31.60;;;;;;;;;;10086065;28;20044;-62
2023/01/06 15:11:29;;;;;;;48.53;32.72;;;;;;;;;;10096260;28;20099;-64
2023/01/06 15:16:25;;;;;;;51.63;34.00;;;;;;;;;;10093152;28;20061;-63
2023/01/06 15:21:19;;;;;;;47.03;32.80;;;;;;;;;;10090486;28;20068;-64
2023/01/06 15:26:17;;;;;;;51.30;31.50;;;;;;;;;;10073114;28;20047;-62
2023/01/06 15:31:17;;;;;;;49.70;34.08;;;;;;;;;;10086367;28;20052;-62
2023/01/06 15:36:16;;;;;;;43.60;31.30;;;;;;;;;;10062212;28;20049;-63
2023/01/06 15:41:31;;;;;;;49.73;32.20;;;;;;;;;;10081826;28;20071;-63
2023/01/06 15:46:26;;;;;;;46.83;32.95;;;;;;;;;;10079967;28;20080;-62
2023/01/06 15:51:21;;;;;;;48.83;31.85;;;;;;;;;;10080264;28;20119;-62
2023/01/06 15:56:20;;;;;;;46.30;31.67;;;;;;;;;;10079347;28;20049;-63
2023/01/06 16:01:19;;;;;;;44.67;32.25;;;;;;;;;;10078722;28;20055;-62
2023/01/06 16:06:15;;;;;;;49.70;32.45;;;;;;;;;;10078954;28;20053;-63
2023/01/06 16:11:16;;;;;;;52.05;32.97;;;;;;;;;;10080947;28;20046;-64
2023/01/06 16:16:14;;;;;;;54.63;35.85;;;;;;;;;;10086300;28;20497;-64
2023/01/06 16:21:28;;;;;;;60.58;36.78;;;;;;;;;;10098723;28;20051;-64
2023/01/06 16:26:26;;;;;;;70.95;41.60;;;;;;;;;;10090791;28;20502;-63
2023/01/06 16:31:32;;;;;;;74.20;50.05;;;;;;;;;;10080362;28;20083;-62
2023/01/06 16:36:26;;;;;;;87.28;51.38;;;;;;;;;;10078491;28;20084;-62
2023/01/06 16:41:19;;;;;;;62.45;40.00;;;;;;;;;;10083189;28;20049;-62
2023/01/06 16:46:21;;;;;;;59.35;35.40;;;;;;;;;;10076433;28;20073;-62
2023/01/06 16:51:16;;;;;;;71.60;43.13;;;;;;;;;;10078521;28;20094;-62
2023/01/06 16:56:41;;;;;;;50.50;34.22;;;;;;;;;;10080364;28;20052;-61
2023/01/06 17:01:34;;;;;;;50.25;31.83;;;;;;;;;;10077954;28;20119;-61
2023/01/06 17:06:29;;;;;;;50.80;31.80;;;;;;;;;;10076811;28;20111;-62
2023/01/06 17:11:24;;;;;;;43.67;31.50;;;;;;;;;;10074055;28;20065;-59
2023/01/06 17:16:20;;;;;;;43.60;30.98;;;;;;;;;;10076969;28;20042;-61
2023/01/06 17:21:18;;;;;;;49.22;31.98;;;;;;;;;;10082364;28;20041;-60
2023/01/06 17:26:14;;;;;;;47.33;32.47;;;;;;;;;;10086758;28;20057;-60
2023/01/06 17:31:32;;;;;;;54.17;33.38;;;;;;;;;;10085183;28;20072;-60
2023/01/06 17:36:34;;;;;;;52.53;33.75;;;;;;;;;;10067365;28;20080;-60
2023/01/06 17:41:29;;;;;;;53.40;31.75;;;;;;;;;;10090288;28;20049;-60
2023/01/06 17:46:28;;;;;;;50.72;33.42;;;;;;;;;;10085428;28;20052;-60
2023/01/06 17:51:22;;;;;;;46.50;30.75;;;;;;;;;;10084338;28;20081;-59
2023/01/06 17:56:16;;;;;;;45.15;31.35;;;;;;;;;;10092451;28;20049;-59
2023/01/06 18:01:15;;;;;;;42.78;30.42;;;;;;;;;;10088290;28;20083;-60
2023/01/06 18:06:17;;;;;;;53.53;32.40;;;;;;;;;;10089428;28;20052;-61
2023/01/06 18:11:09;;;;;;;42.28;31.55;;;;;;;;;;10093702;28;20434;-61
2023/01/06 18:16:11;;;;;;;56.08;40.92;;;;;;;;;;10088454;28;20037;-60
2023/01/06 18:21:25;;;;;;;58.72;31.65;;;;;;;;;;10084424;28;20049;-60
2023/01/06 18:26:26;;;;;;;54.75;35.42;;;;;;;;;;10087937;28;20091;-61
2023/01/06 18:31:22;;;;;;;50.35;33.00;;;;;;;;;;10083025;28;20076;-60
2023/01/06 18:36:16;;;;;;;52.17;36.85;;;;;;;;;;10081800;28;20394;-62
2023/01/06 18:41:19;;;;;;;56.60;37.50;;;;;;;;;;10108532;28;20048;-61
2023/01/06 18:46:15;;;;;;;55.00;37.08;;;;;;;;;;10108308;28;20037;-62
2023/01/06 18:51:18;;;;;;;58.70;37.58;;;;;;;;;;10092346;28;20501;-64
2023/01/06 18:56:25;;;;;;;77.70;45.58;;;;;;;;;;10108096;28;20577;-61
2023/01/06 19:01:26;;;;;;;65.95;40.50;;;;;;;;;;10107707;28;20449;-61
2023/01/06 19:06:33;;;;;;;66.88;42.25;;;;;;;;;;10088811;28;20472;-62
2023/01/06 19:11:28;;;;;;;61.47;38.65;;;;;;;;;;10107280;28;20045;-62
2023/01/06 19:16:37;;;;;;;60.17;39.95;;;;;;;;;;10107301;28;20139;-61
2023/01/06 19:21:31;;;;;;;67.07;41.88;;;;;;;;;;10107966;28;20501;-62
2023/01/06 19:26:31;;;;;;;53.75;38.05;;;;;;;;;;10107246;28;20052;-61
2023/01/06 19:31:25;;;;;;;62.28;39.80;;;;;;;;;;10104749;28;20105;-62
2023/01/06 19:36:42;;;;;;;57.65;39.60;;;;;;;;;;10106555;28;20107;-61
2023/01/06 19:41:36;;;;;;;57.38;39.47;;;;;;;;;;10106732;28;20045;-64
2023/01/06 19:46:36;;;;;;;54.30;36.80;;;;;;;;;;10100027;28;20060;-63
2023/01/06 19:51:33;;;;;;;54.40;37.22;;;;;;;;;;10105831;28;20103;-63
2023/01/06 19:56:31;;;;;;;61.05;40.75;;;;;;;;;;10105741;28;20057;-66
2023/01/06 20:01:26;;;;;;;57.65;38.97;;;;;;;;;;10095405;28;20129;-63
2023/01/06 20:06:24;;;;;;;49.40;35.45;;;;;;;;;;10092859;28;20115;-63
2023/01/06 20:11:17;;;;;;;49.92;36.33;;;;;;;;;;10090870;28;20049;-62
2023/01/06 20:16:10;;;;;;;59.42;37.35;;;;;;;;;;10094930;28;20059;-62
2023/01/06 20:21:04;;;;;;;54.17;37.10;;;;;;;;;;10087015;28;20072;-62
2023/01/06 20:25:58;;;;;;;55.30;34.67;;;;;;;;;;10087044;28;20049;-62
2023/01/06 20:30:51;;;;;;;57.67;36.00;;;;;;;;;;10096658;28;20111;-61
2023/01/06 20:35:46;;;;;;;54.42;35.75;;;;;;;;;;10097142;28;20052;-61
2023/01/06 20:40:40;;;;;;;55.13;35.35;;;;;;;;;;10099904;28;20520;-67
2023/01/06 20:45:33;;;;;;;45.85;35.75;;;;;;;;;;10097584;28;20053;-62
2023/01/06 20:50:26;;;;;;;53.17;35.75;;;;;;;;;;10102152;28;20049;-62
2023/01/06 20:55:20;;;;;;;48.88;33.67;;;;;;;;;;10095951;28;20061;-62
2023/01/06 21:00:14;;;;;;;54.30;36.70;;;;;;;;;;10102089;28;20120;-62
2023/01/06 21:05:09;;;;;;;76.68;43.03;;;;;;;;;;10100819;28;20478;-64
2023/01/06 21:10:08;;;;;;;52.70;35.78;;;;;;;;;;10091185;28;20045;-72
2023/01/06 21:15:08;;;;;;;56.53;37.38;;;;;;;;;;10099812;28;20052;-68
2023/01/06 21:20:01;;;;;;;54.13;35.90;;;;;;;;;;10086557;28;20087;-69
2023/01/06 21:24:55;;;;;;;70.85;41.17;;;;;;;;;;10106220;28;20044;-60
2023/01/06 21:29:49;;;;;;;49.78;36.45;;;;;;;;;;10106561;28;20160;-61
2023/01/06 21:34:43;;;;;;;51.90;33.70;;;;;;;;;;10103011;28;20057;-62
2023/01/06 21:39:37;;;;;;;65.15;38.40;;;;;;;;;;10105451;28;20119;-60
2023/01/06 21:44:31;;;;;;;64.75;40.28;;;;;;;;;;10101593;28;20144;-59
2023/01/06 21:49:24;;;;;;;65.95;38.55;;;;;;;;;;10085247;28;20053;-60
2023/01/06 21:54:18;;;;;;;62.42;37.65;;;;;;;;;;10085884;28;20053;-59
2023/01/06 21:59:12;;;;;;;63.22;38.63;;;;;;;;;;10103172;28;20075;-60
2023/01/06 22:04:05;;;;;;;57.60;38.65;;;;;;;;;;10092343;28;20049;-59
2023/01/06 22:09:04;;;;;;;63.05;37.30;;;;;;;;;;10094080;28;20457;-60
2023/01/06 22:13:58;;;;;;;57.50;35.22;;;;;;;;;;10100615;28;20064;-60
2023/01/06 22:18:53;;;;;;;58.45;38.05;;;;;;;;;;10104529;28;20045;-60
2023/01/06 22:23:47;;;;;;;62.03;38.65;;;;;;;;;;10099729;28;20545;-60
2023/01/06 22:28:41;;;;;;;67.65;40.00;;;;;;;;;;10097922;28;20046;-60
2023/01/06 22:33:35;;;;;;;59.53;37.72;;;;;;;;;;10102865;28;20045;-60
2023/01/06 22:38:29;;;;;;;57.33;35.35;;;;;;;;;;10101950;28;20048;-59
2023/01/06 22:43:23;;;;;;;62.13;38.22;;;;;;;;;;10102360;28;20087;-60
2023/01/06 22:48:17;;;;;;;65.50;36.67;;;;;;;;;;10103819;28;20050;-60
2023/01/06 22:53:11;;;;;;;64.65;38.75;;;;;;;;;;10103332;28;20522;-60
2023/01/06 22:58:06;;;;;;;72.38;41.10;;;;;;;;;;10098859;28;20386;-60
2023/01/06 23:03:00;;;;;;;63.05;37.78;;;;;;;;;;10102297;28;20053;-61
2023/01/06 23:07:55;;;;;;;68.70;38.95;;;;;;;;;;10100245;28;20497;-60
2023/01/06 23:12:47;;;;;;;62.72;38.58;;;;;;;;;;10099439;28;20421;-59
2023/01/06 23:17:42;;;;;;;61.78;36.00;;;;;;;;;;10098333;28;20056;-59
2023/01/06 23:22:36;;;;;;;59.05;36.45;;;;;;;;;;10099439;28;20128;-60
2023/01/06 23:27:29;;;;;;;59.63;36.17;;;;;;;;;;10101168;28;20128;-59
2023/01/06 23:32:23;;;;;;;61.17;35.67;;;;;;;;;;10102407;28;20073;-60
2023/01/06 23:37:16;;;;;;;55.70;35.00;;;;;;;;;;10100566;28;20057;-59
2023/01/06 23:42:10;;;;;;;55.83;35.60;;;;;;;;;;10097031;28;20513;-59
2023/01/06 23:47:04;;;;;;;56.28;33.15;;;;;;;;;;10102966;28;20051;-59
2023/01/06 23:52:00;;;;;;;54.95;31.73;;;;;;;;;;10101064;28;20053;-59
2023/01/06 23:56:54;;;;;;;49.28;28.95;;;;;;;;;;10103075;28;20053;-59
